createdAt,value
2022-08-23T00:02:29.416Z,100.00
2022-08-23T00:05:09.158Z,100.00
2022-08-23T00:07:39.924Z,100.00
2022-08-23T00:10:11.225Z,100.00
2022-08-23T00:12:40.360Z,100.00
2022-08-23T00:15:13.197Z,100.00
2022-08-23T00:17:43.967Z,100.00
2022-08-23T00:20:18.548Z,100.00
2022-08-23T00:22:47.944Z,100.00
2022-08-23T00:25:17.136Z,100.00
2022-08-23T00:27:46.175Z,100.00
2022-08-23T00:30:17.276Z,100.00
2022-08-23T00:32:48.012Z,100.00
2022-08-23T00:35:26.574Z,100.00
2022-08-23T00:38:14.624Z,100.00
2022-08-23T00:40:47.359Z,100.00
2022-08-23T00:43:35.932Z,100.00
2022-08-23T00:46:32.606Z,100.00
2022-08-23T00:49:08.821Z,100.00
2022-08-23T00:51:52.684Z,100.00
2022-08-23T00:54:24.117Z,100.00
2022-08-23T00:56:53.279Z,100.00
2022-08-23T00:59:21.774Z,100.00
2022-08-23T01:02:00.029Z,100.00
2022-08-23T01:04:45.130Z,100.00
2022-08-23T01:07:20.959Z,100.00
2022-08-23T01:09:53.433Z,100.00
2022-08-23T01:12:32.321Z,100.00
2022-08-23T01:15:07.265Z,100.00
2022-08-23T01:17:42.498Z,100.00
2022-08-23T01:20:17.406Z,100.00
2022-08-23T01:22:53.183Z,100.00
2022-08-23T01:25:27.635Z,100.00
2022-08-23T01:27:56.155Z,100.00
2022-08-23T01:30:27.444Z,100.00
2022-08-23T01:32:58.543Z,100.00
2022-08-23T01:35:41.514Z,100.00
2022-08-23T01:38:11.284Z,100.00
2022-08-23T01:40:42.331Z,100.00
2022-08-23T01:43:13.243Z,100.00
2022-08-23T01:45:42.989Z,100.00
2022-08-23T01:48:11.565Z,100.00
2022-08-23T01:50:40.370Z,100.00
2022-08-23T01:53:10.678Z,100.00
2022-08-23T01:55:42.338Z,100.00
2022-08-23T01:58:11.672Z,100.00
2022-08-23T02:00:42.424Z,100.00
2022-08-23T02:03:12.889Z,100.00
2022-08-23T02:05:42.887Z,100.00
2022-08-23T02:08:29.077Z,100.00
2022-08-23T02:11:00.537Z,100.00
2022-08-23T02:13:29.840Z,100.00
2022-08-23T02:15:58.639Z,100.00
2022-08-23T02:18:28.133Z,100.00
2022-08-23T02:20:56.915Z,100.00
2022-08-23T02:23:25.981Z,100.00
2022-08-23T02:25:55.565Z,100.00
2022-08-23T02:28:26.684Z,100.00
2022-08-23T02:30:55.508Z,100.00
2022-08-23T02:33:24.337Z,100.00
2022-08-23T02:35:53.686Z,100.00
2022-08-23T02:38:22.169Z,100.00
2022-08-23T02:40:53.059Z,100.00
2022-08-23T02:43:31.516Z,100.00
2022-08-23T02:46:07.841Z,100.00
2022-08-23T02:48:36.881Z,100.00
2022-08-23T02:51:10.574Z,100.00
2022-08-23T02:53:41.104Z,100.00
2022-08-23T02:56:21.160Z,100.00
2022-08-23T02:58:54.222Z,100.00
2022-08-23T03:01:28.886Z,100.00
2022-08-23T03:03:59.318Z,100.00
2022-08-23T03:06:29.064Z,100.00
2022-08-23T03:08:58.477Z,100.00
2022-08-23T03:11:27.733Z,100.00
2022-08-23T03:14:01.599Z,100.00
2022-08-23T03:16:31.303Z,100.00
2022-08-23T03:19:02.612Z,100.00
2022-08-23T03:21:31.495Z,100.00
2022-08-23T03:24:01.141Z,100.00
2022-08-23T03:26:29.705Z,100.00
2022-08-23T03:28:58.771Z,100.00
2022-08-23T03:31:31.304Z,100.00
2022-08-23T03:34:00.708Z,100.00
2022-08-23T03:36:29.760Z,100.00
2022-08-23T03:38:58.790Z,100.00
2022-08-23T03:41:30.765Z,100.00
2022-08-23T03:43:59.424Z,100.00
2022-08-23T03:46:33.763Z,100.00
2022-08-23T03:49:04.116Z,100.00
2022-08-23T03:51:34.645Z,100.00
2022-08-23T03:54:03.828Z,100.00
2022-08-23T03:56:36.165Z,100.00
2022-08-23T03:59:07.513Z,100.00
2022-08-23T04:01:37.398Z,100.00
2022-08-23T04:04:06.938Z,100.00
2022-08-23T04:06:35.682Z,100.00
2022-08-23T04:09:04.552Z,100.00
2022-08-23T04:11:33.189Z,100.00
2022-08-23T04:14:02.692Z,100.00
2022-08-23T04:16:37.622Z,100.00
2022-08-23T04:19:08.737Z,100.00
2022-08-23T04:21:39.037Z,100.00
2022-08-23T04:24:07.738Z,100.00
2022-08-23T04:26:36.437Z,100.00
2022-08-23T04:29:05.802Z,100.00
2022-08-23T04:31:37.147Z,100.00
2022-08-23T04:34:09.433Z,100.00
2022-08-23T04:36:41.710Z,100.00
2022-08-23T04:39:17.818Z,100.00
2022-08-23T04:42:05.434Z,100.00
2022-08-23T04:44:34.080Z,100.00
2022-08-23T04:47:02.669Z,100.00
2022-08-23T04:49:33.894Z,100.00
2022-08-23T04:52:03.812Z,100.00
2022-08-23T04:54:32.420Z,100.00
2022-08-23T04:57:00.800Z,100.00
2022-08-23T04:59:29.359Z,100.00
2022-08-23T05:01:58.400Z,100.00
2022-08-23T05:04:27.405Z,100.00
2022-08-23T05:06:57.900Z,100.00
2022-08-23T05:09:27.362Z,100.00
2022-08-23T05:11:56.662Z,100.00
2022-08-23T05:14:25.398Z,100.00
2022-08-23T05:16:53.996Z,100.00
2022-08-23T05:19:22.673Z,100.00
2022-08-23T05:21:53.940Z,100.00
2022-08-23T05:24:26.717Z,100.00
2022-08-23T05:26:55.082Z,100.00
2022-08-23T05:29:23.446Z,100.00
2022-08-23T05:31:52.102Z,100.00
2022-08-23T05:34:22.776Z,100.00
2022-08-23T05:36:55.595Z,100.00
2022-08-23T05:39:32.973Z,100.00
2022-08-23T05:42:08.460Z,100.00
2022-08-23T05:44:37.411Z,100.00
2022-08-23T05:47:10.804Z,100.00
2022-08-23T05:49:40.530Z,100.00
2022-08-23T05:52:13.308Z,100.00
2022-08-23T05:54:42.271Z,100.00
2022-08-23T05:57:12.744Z,100.00
2022-08-23T05:59:44.355Z,100.00
2022-08-23T06:02:12.830Z,100.00
2022-08-23T06:04:41.580Z,100.00
2022-08-23T06:07:11.715Z,100.00
2022-08-23T06:09:40.550Z,100.00
2022-08-23T06:12:09.836Z,100.00
2022-08-23T06:14:40.276Z,100.00
2022-08-23T06:17:09.045Z,100.00
2022-08-23T06:19:37.427Z,100.00
2022-08-23T06:22:05.821Z,100.00
2022-08-23T06:24:34.495Z,100.00
2022-08-23T06:27:03.529Z,100.00
2022-08-23T06:29:32.116Z,100.00
2022-08-23T06:32:02.804Z,100.00
2022-08-23T06:34:33.753Z,100.00
2022-08-23T06:37:05.100Z,100.00
2022-08-23T06:39:37.550Z,100.00
2022-08-23T06:42:34.440Z,100.00
2022-08-23T06:44:57.900Z,100.00
2022-08-23T06:47:29.227Z,100.00
2022-08-23T06:49:58.784Z,100.00
2022-08-23T06:52:28.998Z,100.00
2022-08-23T06:54:57.951Z,100.00
2022-08-23T06:57:27.617Z,100.00
2022-08-23T06:59:56.065Z,100.00
2022-08-23T07:02:24.662Z,100.00
2022-08-23T07:04:56.178Z,100.00
2022-08-23T07:07:24.794Z,100.00
2022-08-23T07:10:11.330Z,100.00
2022-08-23T07:12:42.698Z,100.00
2022-08-23T07:15:14.013Z,100.00
2022-08-23T07:17:42.539Z,100.00
2022-08-23T07:20:13.409Z,100.00
2022-08-23T07:22:41.925Z,100.00
2022-08-23T07:25:10.742Z,100.00
2022-08-23T07:27:39.523Z,100.00
2022-08-23T07:30:09.735Z,100.00
2022-08-23T07:32:38.395Z,100.00
2022-08-23T07:35:07.949Z,100.00
2022-08-23T07:37:37.969Z,100.00
2022-08-23T07:40:08.935Z,100.00
2022-08-23T07:42:37.890Z,100.00
2022-08-23T07:45:10.038Z,100.00
2022-08-23T07:47:39.014Z,100.00
2022-08-23T07:50:10.142Z,100.00
2022-08-23T07:52:40.748Z,100.00
2022-08-23T07:55:10.301Z,100.00
2022-08-23T07:57:39.109Z,100.00
2022-08-23T08:00:09.627Z,100.00
2022-08-23T08:02:38.405Z,100.00
2022-08-23T08:05:08.828Z,100.00
2022-08-23T08:07:39.367Z,100.00
2022-08-23T08:10:09.276Z,100.00
2022-08-23T08:12:37.701Z,100.00
2022-08-23T08:15:07.336Z,100.00
2022-08-23T08:17:36.815Z,100.00
2022-08-23T08:20:06.320Z,100.00
2022-08-23T08:22:34.579Z,100.00
2022-08-23T08:25:04.934Z,100.00
2022-08-23T08:27:34.013Z,100.00
2022-08-23T08:30:04.405Z,100.00
2022-08-23T08:32:33.437Z,100.00
2022-08-23T08:35:03.415Z,100.00
2022-08-23T08:37:32.432Z,100.00
2022-08-23T08:40:03.887Z,100.00
2022-08-23T08:42:46.122Z,100.00
2022-08-23T08:45:21.909Z,100.00
2022-08-23T08:47:54.797Z,100.00
2022-08-23T08:50:30.149Z,100.00
2022-08-23T08:53:04.065Z,100.00
2022-08-23T08:55:39.525Z,100.00
2022-08-23T08:58:17.801Z,100.00
2022-08-23T09:00:50.676Z,100.00
2022-08-23T09:03:22.859Z,100.00
2022-08-23T09:06:03.293Z,100.00
2022-08-23T09:08:51.156Z,100.00
2022-08-23T09:11:35.422Z,100.00
2022-08-23T09:14:31.759Z,100.00
2022-08-23T09:17:05.674Z,100.00
2022-08-23T09:19:38.748Z,100.00
2022-08-23T09:22:13.794Z,100.00
2022-08-23T09:24:42.939Z,100.00
2022-08-23T09:27:13.450Z,100.00
2022-08-23T09:29:57.472Z,100.00
2022-08-23T09:32:34.277Z,100.00
2022-08-23T09:35:10.224Z,100.00
2022-08-23T09:37:53.268Z,100.00
2022-08-23T09:40:32.280Z,100.00
2022-08-23T09:43:14.574Z,100.00
2022-08-23T09:45:54.722Z,100.00
2022-08-23T09:48:36.619Z,100.00
2022-08-23T09:51:14.368Z,100.00
2022-08-23T09:53:49.956Z,100.00
2022-08-23T09:56:26.326Z,100.00
2022-08-23T09:58:57.139Z,100.00
2022-08-23T10:01:27.996Z,100.00
2022-08-23T10:04:12.401Z,100.00
2022-08-23T10:06:43.503Z,100.00
2022-08-23T10:09:26.014Z,100.00
2022-08-23T10:11:55.299Z,100.00
2022-08-23T10:14:30.744Z,100.00
2022-08-23T10:17:11.491Z,100.00
2022-08-23T10:19:48.605Z,100.00
2022-08-23T10:22:21.921Z,100.00
2022-08-23T10:25:01.031Z,100.00
2022-08-23T10:27:53.326Z,100.00
2022-08-23T10:30:28.579Z,100.00
2022-08-23T10:33:08.286Z,100.00
2022-08-23T10:35:45.215Z,100.00
2022-08-23T10:38:29.720Z,100.00
2022-08-23T10:41:04.963Z,100.00
2022-08-23T10:43:41.021Z,100.00
2022-08-23T10:46:12.257Z,100.00
2022-08-23T10:48:50.376Z,100.00
2022-08-23T10:51:31.928Z,100.00
2022-08-23T10:54:08.098Z,100.00
2022-08-23T10:56:44.334Z,100.00
2022-08-23T10:59:24.227Z,100.00
2022-08-23T11:02:01.623Z,100.00
2022-08-23T11:04:37.189Z,100.00
2022-08-23T11:07:18.254Z,100.00
2022-08-23T11:09:55.089Z,100.00
2022-08-23T11:12:30.264Z,100.00
2022-08-23T11:15:12.501Z,100.00
2022-08-23T11:17:58.185Z,100.00
2022-08-23T11:21:06.385Z,100.00
2022-08-23T11:23:45.320Z,100.00
2022-08-23T11:26:48.948Z,100.00
2022-08-23T11:29:33.220Z,100.00
2022-08-23T11:32:19.675Z,100.00
2022-08-23T11:35:00.215Z,100.00
2022-08-23T11:37:49.581Z,100.00
2022-08-23T11:40:39.668Z,100.00
2022-08-23T11:43:13.749Z,100.00
2022-08-23T11:45:47.511Z,100.00
2022-08-23T11:48:20.558Z,100.00
2022-08-23T11:51:11.309Z,100.00
2022-08-23T11:53:58.493Z,100.00
2022-08-23T11:56:46.317Z,100.00
2022-08-23T11:59:38.448Z,100.00
2022-08-23T12:02:37.279Z,100.00
2022-08-23T12:05:21.290Z,100.00
2022-08-23T12:07:56.041Z,100.00
2022-08-23T12:10:46.769Z,100.00
2022-08-23T12:13:31.943Z,100.00
2022-08-23T12:16:17.038Z,100.00
2022-08-23T12:18:54.774Z,100.00
2022-08-23T12:21:29.051Z,100.00
2022-08-23T12:24:02.926Z,100.00
2022-08-23T12:26:45.668Z,100.00
2022-08-23T12:29:25.672Z,100.00
2022-08-23T12:32:01.043Z,100.00
2022-08-23T12:34:35.382Z,100.00
2022-08-23T12:37:16.261Z,100.00
2022-08-23T12:39:52.652Z,100.00
2022-08-23T12:42:27.732Z,100.00
2022-08-23T12:45:07.204Z,100.00
2022-08-23T12:47:40.982Z,100.00
2022-08-23T12:50:32.469Z,100.00
2022-08-23T12:53:06.258Z,100.00
2022-08-23T12:55:38.925Z,100.00
2022-08-23T12:58:09.289Z,100.00
2022-08-23T13:00:43.754Z,100.00
2022-08-23T13:03:19.095Z,100.00
2022-08-23T13:05:52.757Z,100.00
2022-08-23T13:08:34.134Z,100.00
2022-08-23T13:11:08.458Z,100.00
2022-08-23T13:13:40.205Z,100.00
2022-08-23T13:16:29.710Z,100.00
2022-08-23T13:19:16.702Z,100.00
2022-08-23T13:21:45.980Z,100.00
2022-08-23T13:24:38.741Z,100.00
2022-08-23T13:27:23.125Z,100.00
2022-08-23T13:29:55.187Z,100.00
2022-08-23T13:32:43.644Z,100.00
2022-08-23T13:35:40.515Z,95.70
2022-08-23T13:38:21.720Z,95.76
2022-08-23T13:41:05.648Z,94.80
2022-08-23T13:43:40.969Z,97.93
2022-08-23T13:46:21.732Z,98.17
2022-08-23T13:48:58.655Z,100.00
2022-08-23T13:51:31.967Z,97.43
2022-08-23T13:54:02.976Z,98.59
2022-08-23T13:59:06.791Z,99.74
2022-08-23T14:01:36.148Z,98.70
2022-08-23T14:04:05.143Z,100.00
2022-08-23T14:06:33.580Z,90.93
2022-08-23T14:09:02.045Z,90.09
2022-08-23T14:11:30.788Z,95.26
2022-08-23T14:13:59.188Z,99.40
2022-08-23T14:16:33.164Z,95.70
2022-08-23T14:19:55.124Z,97.00
2022-08-23T14:21:53.793Z,98.15
2022-08-23T14:24:23.224Z,99.38
2022-08-23T14:26:52.671Z,95.47
2022-08-23T14:29:22.872Z,97.30
2022-08-23T14:31:53.620Z,96.88
2022-08-23T14:34:22.775Z,97.09
2022-08-23T14:39:42.404Z,92.82
2022-08-23T14:42:13.606Z,92.52
2022-08-23T14:44:43.110Z,97.04
2022-08-23T14:47:13.045Z,99.83
2022-08-23T14:49:42.086Z,100.00
2022-08-23T14:52:12.238Z,100.00
2022-08-23T14:54:41.468Z,100.00
2022-08-23T14:57:10.545Z,100.00
2022-08-23T14:59:39.003Z,100.00
2022-08-23T15:02:12.257Z,100.00
2022-08-23T15:04:42.512Z,100.00
2022-08-23T15:07:18.263Z,99.64
2022-08-23T15:09:47.504Z,97.65
2022-08-23T15:15:06.682Z,92.09
2022-08-23T15:17:38.903Z,94.04
2022-08-23T15:20:09.643Z,96.08
2022-08-23T15:22:44.277Z,97.03
2022-08-23T15:25:13.500Z,97.99
2022-08-23T15:27:42.753Z,98.63
2022-08-23T15:30:13.938Z,99.44
2022-08-23T15:32:52.137Z,100.00
2022-08-23T15:35:25.689Z,99.24
2022-08-23T15:37:56.385Z,94.97
2022-08-23T15:40:26.516Z,87.57
2022-08-23T15:42:55.146Z,84.09
2022-08-23T15:45:23.765Z,82.24
2022-08-23T15:47:54.504Z,74.45
2022-08-23T15:50:27.686Z,78.29
2022-08-23T15:52:56.779Z,67.09
2022-08-23T15:55:29.591Z,65.91
2022-08-23T15:57:58.879Z,61.83
2022-08-23T16:00:28.499Z,58.02
2022-08-23T16:03:20.656Z,56.44
2022-08-23T16:05:49.938Z,55.61
2022-08-23T16:08:23.098Z,54.98
2022-08-23T16:10:52.468Z,48.64
2022-08-23T16:13:21.437Z,51.05
2022-08-23T16:15:50.228Z,48.96
2022-08-23T16:18:19.151Z,46.81
2022-08-23T16:20:49.005Z,51.49
2022-08-23T16:23:23.323Z,54.01
2022-08-23T16:25:54.417Z,54.23
2022-08-23T16:28:24.271Z,58.18
2022-08-23T16:30:52.911Z,65.13
2022-08-23T16:33:21.509Z,69.70
2022-08-23T16:35:51.728Z,73.86
2022-08-23T16:38:21.243Z,63.01
2022-08-23T16:40:50.162Z,59.17
2022-08-23T16:43:18.829Z,66.93
2022-08-23T16:45:47.474Z,72.58
2022-08-23T16:48:16.283Z,61.72
2022-08-23T16:50:45.040Z,57.16
2022-08-23T16:53:15.757Z,52.94
2022-08-23T16:55:45.709Z,49.30
2022-08-23T16:58:14.286Z,55.03
2022-08-23T17:00:42.762Z,64.02
2022-08-23T17:03:11.519Z,68.49
2022-08-23T17:05:39.901Z,58.62
2022-08-23T17:08:08.673Z,53.17
2022-08-23T17:10:39.204Z,52.93
2022-08-23T17:13:11.053Z,60.74
2022-08-23T17:15:40.177Z,68.03
2022-08-23T17:18:09.409Z,73.19
2022-08-23T17:20:41.319Z,75.51
2022-08-23T17:23:12.406Z,66.25
2022-08-23T17:25:47.750Z,60.72
2022-08-23T17:28:17.826Z,61.75
2022-08-23T17:30:46.239Z,66.81
2022-08-23T17:33:15.370Z,71.72
2022-08-23T17:35:45.935Z,77.27
2022-08-23T17:38:15.717Z,76.82
2022-08-23T17:40:45.963Z,69.07
2022-08-23T17:43:14.454Z,66.62
2022-08-23T17:45:52.430Z,71.19
2022-08-23T17:48:23.024Z,65.61
2022-08-23T17:50:51.455Z,55.97
2022-08-23T17:53:20.458Z,55.55
2022-08-23T17:55:50.504Z,53.35
2022-08-23T17:58:20.669Z,56.44
2022-08-23T18:00:49.218Z,61.59
2022-08-23T18:03:17.718Z,66.23
2022-08-23T18:05:46.538Z,67.31
2022-08-23T18:08:16.840Z,66.23
2022-08-23T18:10:45.347Z,69.39
2022-08-23T18:13:15.412Z,73.12
2022-08-23T18:15:43.916Z,77.46
2022-08-23T18:18:12.263Z,82.71
2022-08-23T18:20:40.852Z,85.39
2022-08-23T18:23:09.451Z,87.81
2022-08-23T18:25:38.321Z,89.96
2022-08-23T18:28:09.701Z,92.01
2022-08-23T18:30:47.052Z,93.74
2022-08-23T18:33:16.795Z,94.40
2022-08-23T18:35:48.412Z,94.91
2022-08-23T18:38:18.021Z,96.04
2022-08-23T18:40:48.975Z,97.18
2022-08-23T18:43:19.826Z,98.25
2022-08-23T18:45:53.118Z,99.97
2022-08-23T18:48:23.874Z,100.00
2022-08-23T18:50:53.325Z,100.00
2022-08-23T18:53:22.722Z,100.00
2022-08-23T18:55:52.643Z,100.00
2022-08-23T18:58:22.902Z,100.00
2022-08-23T19:00:54.500Z,100.00
2022-08-23T19:03:23.388Z,100.00
2022-08-23T19:05:52.336Z,100.00
2022-08-23T19:08:20.881Z,100.00
2022-08-23T19:10:49.756Z,100.00
2022-08-23T19:13:18.389Z,100.00
2022-08-23T19:15:47.178Z,100.00
2022-08-23T19:18:17.337Z,100.00
2022-08-23T19:20:46.265Z,100.00
2022-08-23T19:23:15.942Z,100.00
2022-08-23T19:25:45.577Z,100.00
2022-08-23T19:28:14.914Z,100.00
2022-08-23T19:30:44.967Z,100.00
2022-08-23T19:33:15.166Z,100.00
2022-08-23T19:35:46.179Z,100.00
2022-08-23T19:38:14.814Z,100.00
2022-08-23T19:41:05.479Z,100.00
2022-08-23T19:43:35.669Z,100.00
2022-08-23T19:46:08.497Z,100.00
2022-08-23T19:48:37.929Z,100.00
2022-08-23T19:51:10.557Z,100.00
2022-08-23T19:53:40.339Z,100.00
2022-08-23T19:56:09.178Z,100.00
2022-08-23T19:58:40.038Z,100.00
2022-08-23T20:01:08.608Z,100.00
2022-08-23T20:03:37.424Z,100.00
2022-08-23T20:06:08.360Z,100.00
2022-08-23T20:08:38.153Z,100.00
2022-08-23T20:11:08.326Z,100.00
2022-08-23T20:13:36.928Z,100.00
2022-08-23T20:16:05.643Z,100.00
2022-08-23T20:18:34.336Z,100.00
2022-08-23T20:21:02.988Z,100.00
2022-08-23T20:23:50.349Z,100.00
2022-08-23T20:26:18.643Z,100.00
2022-08-23T20:28:50.452Z,100.00
2022-08-23T20:31:32.301Z,100.00
2022-08-23T20:34:01.504Z,100.00
2022-08-23T20:36:30.448Z,100.00
2022-08-23T20:39:01.808Z,100.00
2022-08-23T20:41:32.734Z,100.00
2022-08-23T20:44:05.744Z,100.00
2022-08-23T20:46:37.193Z,100.00
2022-08-23T20:49:07.012Z,100.00
2022-08-23T20:51:41.719Z,100.00
2022-08-23T20:54:14.045Z,100.00
2022-08-23T20:56:42.860Z,100.00
2022-08-23T20:59:13.054Z,100.00
2022-08-23T21:01:42.775Z,100.00
2022-08-23T21:04:12.891Z,100.00
2022-08-23T21:06:45.110Z,100.00
2022-08-23T21:09:20.761Z,100.00
2022-08-23T21:11:54.064Z,100.00
2022-08-23T21:14:23.266Z,100.00
2022-08-23T21:16:57.796Z,100.00
2022-08-23T21:19:30.759Z,100.00
2022-08-23T21:22:00.135Z,100.00
2022-08-23T21:24:30.399Z,100.00
2022-08-23T21:27:00.520Z,100.00
2022-08-23T21:29:30.974Z,100.00
2022-08-23T21:31:59.304Z,100.00
2022-08-23T21:34:28.120Z,100.00
2022-08-23T21:37:01.388Z,100.00
2022-08-23T21:39:31.197Z,100.00
2022-08-23T21:42:02.956Z,100.00
2022-08-23T21:44:44.008Z,100.00
2022-08-23T21:47:15.611Z,100.00
2022-08-23T21:49:45.810Z,100.00
2022-08-23T21:52:15.701Z,100.00
2022-08-23T21:54:53.545Z,100.00
2022-08-23T21:57:26.487Z,100.00
2022-08-23T21:59:55.368Z,100.00
2022-08-23T22:02:25.138Z,100.00
2022-08-23T22:04:54.024Z,100.00
2022-08-23T22:07:24.409Z,100.00
2022-08-23T22:09:54.621Z,100.00
2022-08-23T22:12:25.566Z,100.00
2022-08-23T22:14:54.262Z,100.00
2022-08-23T22:17:22.878Z,100.00
2022-08-23T22:19:51.931Z,100.00
2022-08-23T22:22:20.919Z,100.00
2022-08-23T22:24:54.649Z,100.00
2022-08-23T22:27:26.643Z,100.00
2022-08-23T22:30:06.690Z,100.00
2022-08-23T22:32:35.978Z,100.00
2022-08-23T22:35:06.890Z,100.00
2022-08-23T22:38:03.567Z,100.00
2022-08-23T22:40:35.745Z,100.00
2022-08-23T22:43:05.363Z,100.00
2022-08-23T22:45:36.464Z,100.00
2022-08-23T22:48:05.352Z,100.00
2022-08-23T22:50:37.013Z,100.00
2022-08-23T22:53:06.093Z,100.00
2022-08-23T22:55:36.633Z,100.00
2022-08-23T22:58:05.028Z,100.00
2022-08-23T23:00:33.984Z,100.00
2022-08-23T23:03:03.722Z,100.00
2022-08-23T23:05:34.623Z,100.00
2022-08-23T23:08:22.246Z,100.00
2022-08-23T23:10:52.672Z,100.00
2022-08-23T23:13:23.320Z,100.00
2022-08-23T23:15:53.127Z,100.00
2022-08-23T23:18:23.348Z,100.00
2022-08-23T23:20:51.887Z,100.00
2022-08-23T23:23:32.444Z,100.00
2022-08-23T23:26:08.343Z,100.00
2022-08-23T23:28:37.931Z,100.00
2022-08-23T23:31:09.654Z,100.00
2022-08-23T23:33:45.703Z,100.00
2022-08-23T23:36:16.578Z,100.00
2022-08-23T23:38:46.184Z,100.00
2022-08-23T23:41:22.977Z,100.00
2022-08-23T23:43:54.116Z,100.00
2022-08-23T23:46:35.451Z,100.00
2022-08-23T23:49:04.078Z,100.00
2022-08-23T23:51:32.825Z,100.00
2022-08-23T23:54:01.796Z,100.00
2022-08-23T23:56:32.993Z,100.00
2022-08-23T23:59:07.999Z,100.00
